RYR28MT EDDK-LCPH
Flight info
| Callsign | RYR28MT |
|---|---|
| Flight time | N/A |
| Altitude | 37000 |
| Route | KUMIK1R/31R KUMIK L603 TESGA DCT ESATI DCT DETEV DCT DINKU DCT BESNI DCT GOMIG DCT BEDOX DCT MOSAV DCT VEBAR DCT TORTO DCT VABEK UL603 OLOTA DCT DISOR UL608 FSK DCT RIKSO UN127 EXELA UM601 EVENO M601 DASNI M32 TOBAL |
| Aircraft | B738/M-SDE3FGILRWY/SB1 |
Departure
| Time | 2026-04-25 14:27 |
|---|---|
| Airport | Cologne Bonn Airport (EDDK) |
Arrival
| Time | N/A |
|---|---|
| Airport | Paphos International Airport (LCPH) |
| Time | Latitude | Longitude | Altitude | Speed | Heading |
|---|---|---|---|---|---|
| 2026-04-25 14:23 | 50.86535 | 7.14426 | 265 ft | 24 kts | 138° |
| 2026-04-25 14:24 | 50.86250 | 7.14836 | 278 ft | 23 kts | 138° |
| 2026-04-25 14:24 | 50.85990 | 7.15215 | 281 ft | 29 kts | 137° |
| 2026-04-25 14:25 | 50.85702 | 7.15632 | 292 ft | 16 kts | 140° |
| 2026-04-25 14:25 | 50.85615 | 7.15756 | 295 ft | 18 kts | 138° |
| 2026-04-25 14:25 | 50.85524 | 7.15887 | 296 ft | 10 kts | 137° |
| 2026-04-25 14:25 | 50.85491 | 7.15943 | 297 ft | 11 kts | 117° |
| 2026-04-25 14:26 | 50.85538 | 7.16096 | 302 ft | 14 kts | 47° |
| 2026-04-25 14:26 | 50.85605 | 7.16208 | 304 ft | 14 kts | 45° |
| 2026-04-25 14:26 | 50.85679 | 7.16305 | 304 ft | 13 kts | 9° |
| 2026-04-25 14:26 | 50.85744 | 7.16242 | 301 ft | 0 kts | 318° |
| 2026-04-25 14:27 | 50.85838 | 7.16106 | 303 ft | 55 kts | 317° |
| 2026-04-25 14:27 | 50.86332 | 7.15394 | 279 ft | 134 kts | 317° |
| 2026-04-25 14:27 | 50.87167 | 7.14193 | 484 ft | 180 kts | 318° |
| 2026-04-25 14:27 | 50.88079 | 7.12941 | 1728 ft | 168 kts | 318° |
| 2026-04-25 14:28 | 50.88942 | 7.11777 | 2834 ft | 169 kts | 324° |
| 2026-04-25 14:28 | 50.89675 | 7.11163 | 2991 ft | 192 kts | 343° |
| 2026-04-25 14:28 | 50.91504 | 7.11686 | 3525 ft | 214 kts | 26° |
| 2026-04-25 14:28 | 50.92785 | 7.12798 | 4236 ft | 212 kts | 26° |
| 2026-04-25 14:29 | 50.93814 | 7.14534 | 4716 ft | 230 kts | 60° |
| 2026-04-25 14:29 | 50.94524 | 7.16937 | 4865 ft | 248 kts | 61° |
| 2026-04-25 14:29 | 50.95267 | 7.19410 | 4921 ft | 247 kts | 61° |
| 2026-04-25 14:29 | 50.96049 | 7.21934 | 4974 ft | 266 kts | 60° |
| 2026-04-25 14:30 | 50.96893 | 7.24626 | 5665 ft | 275 kts | 60° |
| 2026-04-25 14:30 | 50.98624 | 7.30106 | 7316 ft | 283 kts | 60° |
| 2026-04-25 14:30 | 50.99508 | 7.32911 | 8153 ft | 285 kts | 60° |
| 2026-04-25 14:31 | 51.00400 | 7.35743 | 8933 ft | 290 kts | 60° |
| 2026-04-25 14:31 | 51.01305 | 7.38615 | 9743 ft | 293 kts | 60° |
| 2026-04-25 14:31 | 51.01897 | 7.41752 | 10452 ft | 303 kts | 85° |
| 2026-04-25 14:31 | 51.01602 | 7.45090 | 11179 ft | 309 kts | 105° |
| 2026-04-25 14:32 | 51.00980 | 7.48337 | 11858 ft | 314 kts | 106° |
| 2026-04-25 14:32 | 51.00295 | 7.51710 | 12567 ft | 319 kts | 107° |
| 2026-04-25 14:32 | 50.99607 | 7.55078 | 13300 ft | 323 kts | 107° |
| 2026-04-25 14:32 | 50.98928 | 7.58448 | 13989 ft | 327 kts | 107° |
| 2026-04-25 14:33 | 50.98238 | 7.61905 | 14654 ft | 330 kts | 106° |
| 2026-04-25 14:33 | 50.97547 | 7.65388 | 15312 ft | 333 kts | 106° |
| 2026-04-25 14:33 | 50.96848 | 7.68927 | 15966 ft | 337 kts | 106° |